createdAt,value
2022-11-30T00:00:03.705Z,981.72
2022-11-30T00:01:03.587Z,981.60
2022-11-30T00:02:03.689Z,981.66
2022-11-30T00:03:03.726Z,981.72
2022-11-30T00:04:03.472Z,981.56
2022-11-30T00:05:03.891Z,981.75
2022-11-30T00:06:03.346Z,981.77
2022-11-30T00:07:03.296Z,981.63
2022-11-30T00:08:03.292Z,981.77
2022-11-30T00:09:03.049Z,981.60
2022-11-30T00:10:03.049Z,981.63
2022-11-30T00:11:02.913Z,981.66
2022-11-30T00:12:03.831Z,981.61
2022-11-30T00:13:03.822Z,981.66
2022-11-30T00:14:03.781Z,981.72
2022-11-30T00:15:03.688Z,981.69
2022-11-30T00:16:03.583Z,981.58
2022-11-30T00:17:03.815Z,981.72
2022-11-30T00:18:03.512Z,981.66
2022-11-30T00:19:03.509Z,981.61
2022-11-30T00:20:03.508Z,981.78
2022-11-30T00:21:03.504Z,981.61
2022-11-30T00:22:03.368Z,981.64
2022-11-30T00:23:03.376Z,981.78
2022-11-30T00:24:03.280Z,981.67
2022-11-30T00:25:03.132Z,981.78
2022-11-30T00:26:03.160Z,981.72
2022-11-30T00:27:03.121Z,981.67
2022-11-30T00:28:02.994Z,981.70
2022-11-30T00:29:03.034Z,981.72
2022-11-30T00:30:02.995Z,981.67
2022-11-30T00:31:02.990Z,981.56
2022-11-30T00:32:02.973Z,981.75
2022-11-30T00:33:03.851Z,981.81
2022-11-30T00:34:03.746Z,981.70
2022-11-30T00:35:03.701Z,981.84
2022-11-30T00:36:03.649Z,981.56
2022-11-30T00:37:03.590Z,981.81
2022-11-30T00:38:03.689Z,981.70
2022-11-30T00:39:03.731Z,981.84
2022-11-30T00:40:03.554Z,981.78
2022-11-30T00:41:03.617Z,981.81
2022-11-30T00:42:03.521Z,981.81
2022-11-30T00:43:03.612Z,981.70
2022-11-30T00:44:03.626Z,981.95
2022-11-30T00:45:03.709Z,981.92
2022-11-30T00:46:03.703Z,981.81
2022-11-30T00:47:03.531Z,981.87
2022-11-30T00:48:03.589Z,981.84
2022-11-30T00:49:03.492Z,981.84
2022-11-30T00:50:03.418Z,981.70
2022-11-30T00:51:03.434Z,981.84
2022-11-30T00:52:03.334Z,981.78
2022-11-30T00:53:03.424Z,981.84
2022-11-30T00:54:03.262Z,981.73
2022-11-30T00:55:04.705Z,981.81
2022-11-30T00:56:03.125Z,981.87
2022-11-30T00:57:03.217Z,981.87
2022-11-30T00:58:03.091Z,981.93
2022-11-30T00:59:03.457Z,981.73
2022-11-30T01:00:03.364Z,981.73
2022-11-30T01:01:03.306Z,981.87
2022-11-30T01:02:03.260Z,981.93
2022-11-30T01:03:03.240Z,981.93
2022-11-30T01:04:03.064Z,981.90
2022-11-30T01:05:03.150Z,981.90
2022-11-30T01:06:03.024Z,981.84
2022-11-30T01:07:02.898Z,981.65
2022-11-30T01:08:03.935Z,981.81
2022-11-30T01:09:03.762Z,981.84
2022-11-30T01:10:03.840Z,981.90
2022-11-30T01:11:03.768Z,981.98
2022-11-30T01:12:03.881Z,981.90
2022-11-30T01:13:03.777Z,981.87
2022-11-30T01:14:03.771Z,981.79
2022-11-30T01:15:03.725Z,981.73
2022-11-30T01:16:03.740Z,981.73
2022-11-30T01:17:03.691Z,981.70
2022-11-30T01:18:03.772Z,981.79
2022-11-30T01:19:03.727Z,981.84
2022-11-30T01:20:03.659Z,981.73
2022-11-30T01:21:03.589Z,981.84
2022-11-30T01:22:03.537Z,981.73
2022-11-30T01:23:03.441Z,981.76
2022-11-30T01:24:03.397Z,981.73
2022-11-30T01:25:03.392Z,981.84
2022-11-30T01:26:03.262Z,981.87
2022-11-30T01:27:03.240Z,981.84
2022-11-30T01:28:03.110Z,981.84
2022-11-30T01:29:03.224Z,981.90
2022-11-30T01:30:03.082Z,981.87
2022-11-30T01:31:03.079Z,981.87
2022-11-30T01:32:02.917Z,981.82
2022-11-30T01:33:02.995Z,981.93
2022-11-30T01:34:03.922Z,981.90
2022-11-30T01:35:03.971Z,981.99
2022-11-30T01:36:03.841Z,981.90
2022-11-30T01:37:03.777Z,981.84
2022-11-30T01:38:03.685Z,981.93
2022-11-30T01:39:03.819Z,981.99
2022-11-30T01:40:03.695Z,981.99
2022-11-30T01:41:03.619Z,981.84
2022-11-30T01:42:03.602Z,981.96
2022-11-30T01:43:03.456Z,982.01
2022-11-30T01:44:03.692Z,981.99
2022-11-30T01:45:03.509Z,982.04
2022-11-30T01:46:03.571Z,981.96
2022-11-30T01:47:03.461Z,981.93
2022-11-30T01:48:03.404Z,982.01
2022-11-30T01:49:03.505Z,981.96
2022-11-30T01:50:03.361Z,981.87
2022-11-30T01:51:03.275Z,981.99
2022-11-30T01:52:03.146Z,981.87
2022-11-30T01:53:03.132Z,982.01
2022-11-30T01:54:03.133Z,981.90
2022-11-30T01:55:03.055Z,981.96
2022-11-30T01:56:02.866Z,982.01
2022-11-30T01:57:02.969Z,981.87
2022-11-30T01:58:03.878Z,981.82
2022-11-30T01:59:03.859Z,981.96
2022-11-30T02:00:03.798Z,982.02
2022-11-30T02:01:03.701Z,981.87
2022-11-30T02:02:03.585Z,981.96
2022-11-30T02:03:03.631Z,981.96
2022-11-30T02:04:03.573Z,981.90
2022-11-30T02:05:03.476Z,981.96
2022-11-30T02:06:03.446Z,982.02
2022-11-30T02:07:03.426Z,981.85
2022-11-30T02:08:03.596Z,981.96
2022-11-30T02:09:03.371Z,981.85
2022-11-30T02:10:03.182Z,982.02
2022-11-30T02:11:03.108Z,981.90
2022-11-30T02:12:03.081Z,982.02
2022-11-30T02:13:02.994Z,981.85
2022-11-30T02:14:02.961Z,981.87
2022-11-30T02:15:03.879Z,981.93
2022-11-30T02:16:04.064Z,981.90
2022-11-30T02:17:03.964Z,981.93
2022-11-30T02:18:03.762Z,982.07
2022-11-30T02:19:03.768Z,981.99
2022-11-30T02:20:03.677Z,981.96
2022-11-30T02:21:03.599Z,981.82
2022-11-30T02:22:03.657Z,981.79
2022-11-30T02:23:03.564Z,981.93
2022-11-30T02:24:03.651Z,981.85
2022-11-30T02:25:03.573Z,981.88
2022-11-30T02:26:03.502Z,981.99
2022-11-30T02:27:03.466Z,981.85
2022-11-30T02:28:03.419Z,982.10
2022-11-30T02:29:03.396Z,981.90
2022-11-30T02:30:03.449Z,981.85
2022-11-30T02:31:03.284Z,981.82
2022-11-30T02:32:03.185Z,981.90
2022-11-30T02:33:03.104Z,981.88
2022-11-30T02:34:03.025Z,981.90
2022-11-30T02:35:02.923Z,982.07
2022-11-30T02:36:03.839Z,981.85
2022-11-30T02:37:03.813Z,981.96
2022-11-30T02:38:03.664Z,981.85
2022-11-30T02:39:03.576Z,981.99
2022-11-30T02:40:03.552Z,981.99
2022-11-30T02:41:03.512Z,981.96
2022-11-30T02:42:03.356Z,981.96
2022-11-30T02:43:03.260Z,981.91
2022-11-30T02:44:03.356Z,981.93
2022-11-30T02:45:03.311Z,981.88
2022-11-30T02:46:03.417Z,981.93
2022-11-30T02:47:03.268Z,981.93
2022-11-30T02:48:03.279Z,981.88
2022-11-30T02:49:03.250Z,982.05
2022-11-30T02:50:03.163Z,981.79
2022-11-30T02:51:03.087Z,981.96
2022-11-30T02:52:03.047Z,981.91
2022-11-30T02:53:03.035Z,981.82
2022-11-30T02:54:03.058Z,981.88
2022-11-30T02:55:03.163Z,981.79
2022-11-30T02:56:03.818Z,981.99
2022-11-30T02:57:04.009Z,981.82
2022-11-30T02:58:03.791Z,981.94
2022-11-30T02:59:03.735Z,981.79
2022-11-30T03:00:03.752Z,981.82
2022-11-30T03:01:03.624Z,981.79
2022-11-30T03:02:03.856Z,981.85
2022-11-30T03:03:03.356Z,981.85
2022-11-30T03:04:03.108Z,981.85
2022-11-30T03:05:03.135Z,981.97
2022-11-30T03:06:03.004Z,981.83
2022-11-30T03:07:02.946Z,982.05
2022-11-30T03:08:03.807Z,981.91
2022-11-30T03:09:02.952Z,982.05
2022-11-30T03:10:02.923Z,982.11
2022-11-30T03:11:03.842Z,981.97
2022-11-30T03:12:03.834Z,981.99
2022-11-30T03:13:03.905Z,982.14
2022-11-30T03:14:02.962Z,982.08
2022-11-30T03:15:03.834Z,982.11
2022-11-30T03:16:03.934Z,982.19
2022-11-30T03:17:03.715Z,982.08
2022-11-30T03:18:03.771Z,981.94
2022-11-30T03:19:03.719Z,982.08
2022-11-30T03:20:03.697Z,982.00
2022-11-30T03:21:03.528Z,982.08
2022-11-30T03:22:03.514Z,982.02
2022-11-30T03:23:03.474Z,981.88
2022-11-30T03:24:03.383Z,982.02
2022-11-30T03:25:03.311Z,982.05
2022-11-30T03:26:03.346Z,981.94
2022-11-30T03:27:03.245Z,982.11
2022-11-30T03:28:03.127Z,982.02
2022-11-30T03:29:03.007Z,982.08
2022-11-30T03:30:02.907Z,982.08
2022-11-30T03:31:03.928Z,982.14
2022-11-30T03:32:03.805Z,982.14
2022-11-30T03:33:03.709Z,982.19
2022-11-30T03:34:03.630Z,982.11
2022-11-30T03:35:03.616Z,982.17
2022-11-30T03:36:03.594Z,982.14
2022-11-30T03:37:03.413Z,981.97
2022-11-30T03:38:03.448Z,982.14
2022-11-30T03:39:03.289Z,982.11
2022-11-30T03:40:03.605Z,982.03
2022-11-30T03:41:03.629Z,982.05
2022-11-30T03:42:03.492Z,982.11
2022-11-30T03:43:03.354Z,982.17
2022-11-30T03:44:03.429Z,982.14
2022-11-30T03:45:03.370Z,982.14
2022-11-30T03:46:03.412Z,982.05
2022-11-30T03:47:03.135Z,982.11
2022-11-30T03:48:03.188Z,982.19
2022-11-30T03:49:03.039Z,982.17
2022-11-30T03:50:02.897Z,982.11
2022-11-30T03:51:03.138Z,982.22
2022-11-30T03:52:02.926Z,982.11
2022-11-30T03:53:03.868Z,982.17
2022-11-30T03:54:02.991Z,982.25
2022-11-30T03:55:02.896Z,982.22
2022-11-30T03:56:03.903Z,982.17
2022-11-30T03:57:03.737Z,982.11
2022-11-30T03:58:03.763Z,982.17
2022-11-30T03:59:03.642Z,982.22
2022-11-30T04:00:03.677Z,982.25
2022-11-30T04:01:03.586Z,982.22
2022-11-30T04:02:03.485Z,982.22
2022-11-30T04:03:03.453Z,982.08
2022-11-30T04:04:03.221Z,982.17
2022-11-30T04:05:03.299Z,982.20
2022-11-30T04:06:03.235Z,982.06
2022-11-30T04:07:03.218Z,982.11
2022-11-30T04:08:03.110Z,982.08
2022-11-30T04:09:03.005Z,982.09
2022-11-30T04:10:08.847Z,982.09
2022-11-30T04:11:02.915Z,982.09
2022-11-30T04:12:02.843Z,982.14
2022-11-30T04:13:03.875Z,982.14
2022-11-30T04:14:03.725Z,982.09
2022-11-30T04:15:03.760Z,982.09
2022-11-30T04:16:04.046Z,982.00
2022-11-30T04:17:03.725Z,982.03
2022-11-30T04:18:03.597Z,982.09
2022-11-30T04:19:03.629Z,982.09
2022-11-30T04:20:03.720Z,982.11
2022-11-30T04:21:03.600Z,981.92
2022-11-30T04:22:03.647Z,982.00
2022-11-30T04:23:03.457Z,982.09
2022-11-30T04:24:03.407Z,982.06
2022-11-30T04:25:03.361Z,982.06
2022-11-30T04:26:03.473Z,982.06
2022-11-30T04:27:03.316Z,982.09
2022-11-30T04:28:03.309Z,981.95
2022-11-30T04:29:05.062Z,981.97
2022-11-30T04:30:03.274Z,981.97
2022-11-30T04:31:03.565Z,981.95
2022-11-30T04:32:03.083Z,981.86
2022-11-30T04:33:02.954Z,981.95
2022-11-30T04:34:03.024Z,981.95
2022-11-30T04:35:03.014Z,982.06
2022-11-30T04:36:03.850Z,982.03
2022-11-30T04:37:02.859Z,982.03
2022-11-30T04:38:03.176Z,981.98
2022-11-30T04:39:03.029Z,982.09
2022-11-30T04:40:02.985Z,982.03
2022-11-30T04:41:03.044Z,981.89
2022-11-30T04:42:02.925Z,982.03
2022-11-30T04:43:03.817Z,981.92
2022-11-30T04:44:03.826Z,982.06
2022-11-30T04:45:03.661Z,982.09
2022-11-30T04:46:03.643Z,982.12
2022-11-30T04:47:03.655Z,982.06
2022-11-30T04:48:03.520Z,982.20
2022-11-30T04:49:03.367Z,982.14
2022-11-30T04:50:03.385Z,982.12
2022-11-30T04:51:03.316Z,982.14
2022-11-30T04:52:03.245Z,982.31
2022-11-30T04:53:03.250Z,982.03
2022-11-30T04:54:03.202Z,982.12
2022-11-30T04:55:03.020Z,982.12
2022-11-30T04:56:03.119Z,982.14
2022-11-30T04:57:03.002Z,982.12
2022-11-30T04:58:02.855Z,982.26
2022-11-30T04:59:03.750Z,982.14
2022-11-30T05:00:03.744Z,982.09
2022-11-30T05:01:03.772Z,982.14
2022-11-30T05:02:03.978Z,982.20
2022-11-30T05:03:03.801Z,982.20
2022-11-30T05:04:03.847Z,982.20
2022-11-30T05:05:03.556Z,982.15
2022-11-30T05:06:03.579Z,982.06
2022-11-30T05:07:03.500Z,982.12
2022-11-30T05:08:03.582Z,982.23
2022-11-30T05:09:03.339Z,982.23
2022-11-30T05:10:03.314Z,982.20
2022-11-30T05:11:03.256Z,982.20
2022-11-30T05:12:03.251Z,982.15
2022-11-30T05:13:03.156Z,982.20
2022-11-30T05:14:03.049Z,982.23
2022-11-30T05:15:03.071Z,982.37
2022-11-30T05:16:03.144Z,982.46
2022-11-30T05:17:02.969Z,982.26
2022-11-30T05:18:03.842Z,982.37
2022-11-30T05:19:03.859Z,982.32
2022-11-30T05:20:03.649Z,982.40
2022-11-30T05:21:03.636Z,982.37
2022-11-30T05:22:03.729Z,982.43
2022-11-30T05:23:03.623Z,982.46
2022-11-30T05:24:03.455Z,982.46
2022-11-30T05:25:03.907Z,982.43
2022-11-30T05:26:03.486Z,982.35
2022-11-30T05:27:14.429Z,982.46
2022-11-30T05:28:03.363Z,982.46
2022-11-30T05:29:03.279Z,982.46
2022-11-30T05:30:03.317Z,982.46
2022-11-30T05:31:03.539Z,982.46
2022-11-30T05:32:03.391Z,982.43
2022-11-30T05:33:03.154Z,982.46
2022-11-30T05:34:03.270Z,982.38
2022-11-30T05:35:03.148Z,982.49
2022-11-30T05:36:11.017Z,982.43
2022-11-30T05:37:03.046Z,982.52
2022-11-30T05:38:02.925Z,982.54
2022-11-30T05:39:02.877Z,982.49
2022-11-30T05:40:03.829Z,982.40
2022-11-30T05:41:03.880Z,982.46
2022-11-30T05:42:03.915Z,982.49
2022-11-30T05:43:03.761Z,982.43
2022-11-30T05:44:03.801Z,982.57
2022-11-30T05:45:03.776Z,982.52
2022-11-30T05:46:03.728Z,982.52
2022-11-30T05:47:03.917Z,982.63
2022-11-30T05:48:03.773Z,982.57
2022-11-30T05:49:03.853Z,982.49
2022-11-30T05:50:03.772Z,982.52
2022-11-30T05:51:03.832Z,982.49
2022-11-30T05:52:03.801Z,982.66
2022-11-30T05:53:03.581Z,982.55
2022-11-30T05:54:03.504Z,982.57
2022-11-30T05:55:03.437Z,982.43
2022-11-30T05:56:03.312Z,982.63
2022-11-30T05:57:03.461Z,982.66
2022-11-30T05:58:03.272Z,982.49
2022-11-30T05:59:03.190Z,982.52
2022-11-30T06:00:03.229Z,982.66
2022-11-30T06:01:03.075Z,982.57
2022-11-30T06:02:03.334Z,982.49
2022-11-30T06:03:03.239Z,982.60
2022-11-30T06:04:09.157Z,982.54
2022-11-30T06:05:03.814Z,982.52
2022-11-30T06:06:03.830Z,982.66
2022-11-30T06:07:03.723Z,982.54
2022-11-30T06:08:03.784Z,982.49
2022-11-30T06:09:03.660Z,982.52
2022-11-30T06:10:03.548Z,982.52
2022-11-30T06:11:03.600Z,982.54
2022-11-30T06:12:03.481Z,982.57
2022-11-30T06:13:03.336Z,982.63
2022-11-30T06:14:03.320Z,982.54
2022-11-30T06:15:03.193Z,982.63
2022-11-30T06:16:03.300Z,982.52
2022-11-30T06:17:03.137Z,982.63
2022-11-30T06:18:03.187Z,982.63
2022-11-30T06:19:03.053Z,982.57
2022-11-30T06:20:03.541Z,982.82
2022-11-30T06:21:03.399Z,982.69
2022-11-30T06:22:03.330Z,982.63
2022-11-30T06:23:03.194Z,982.63
2022-11-30T06:24:03.233Z,982.71
2022-11-30T06:25:03.025Z,982.71
2022-11-30T06:26:02.981Z,982.66
2022-11-30T06:27:03.015Z,982.63
2022-11-30T06:28:03.827Z,982.66
2022-11-30T06:29:03.822Z,982.69
2022-11-30T06:30:03.640Z,982.71
2022-11-30T06:31:03.718Z,982.60
2022-11-30T06:32:03.817Z,982.52
2022-11-30T06:33:03.549Z,982.72
2022-11-30T06:34:03.401Z,982.63
2022-11-30T06:35:03.412Z,982.69
2022-11-30T06:36:03.392Z,982.63
2022-11-30T06:37:03.273Z,982.82
2022-11-30T06:38:03.300Z,982.72
2022-11-30T06:39:03.255Z,982.75
2022-11-30T06:40:08.371Z,982.75
2022-11-30T06:41:03.176Z,982.63
2022-11-30T06:42:03.260Z,982.69
2022-11-30T06:43:03.091Z,982.72
2022-11-30T06:44:02.990Z,982.75
2022-11-30T06:45:02.939Z,982.91
2022-11-30T06:46:04.244Z,982.75
2022-11-30T06:47:03.773Z,982.82
2022-11-30T06:48:03.715Z,982.69
2022-11-30T06:49:03.686Z,982.88
2022-11-30T06:50:03.546Z,982.82
2022-11-30T06:51:03.557Z,982.85
2022-11-30T06:52:03.434Z,982.85
2022-11-30T06:53:03.436Z,982.80
2022-11-30T06:54:03.387Z,982.79
2022-11-30T06:55:03.225Z,982.91
2022-11-30T06:56:10.584Z,982.91
2022-11-30T06:57:03.109Z,982.96
2022-11-30T06:58:03.193Z,982.88
2022-11-30T06:59:02.995Z,982.75
2022-11-30T07:00:03.053Z,982.85
2022-11-30T07:01:03.088Z,982.91
2022-11-30T07:02:13.051Z,982.85
2022-11-30T07:03:03.922Z,982.91
2022-11-30T07:04:02.992Z,982.82
2022-11-30T07:05:03.804Z,982.94
2022-11-30T07:06:03.760Z,982.85
2022-11-30T07:07:03.668Z,982.79
2022-11-30T07:08:03.584Z,982.72
2022-11-30T07:09:03.575Z,982.85
2022-11-30T07:10:03.556Z,982.85
2022-11-30T07:11:03.443Z,982.88
2022-11-30T07:12:03.492Z,982.72
2022-11-30T07:13:03.421Z,982.63
2022-11-30T07:14:03.536Z,982.55
2022-11-30T07:15:03.334Z,982.91
2022-11-30T07:16:03.279Z,982.82
2022-11-30T07:17:03.229Z,982.85
2022-11-30T07:18:03.312Z,982.85
2022-11-30T07:19:03.091Z,982.88
2022-11-30T07:20:03.060Z,982.72
2022-11-30T07:21:03.005Z,982.85
2022-11-30T07:22:02.935Z,982.91
2022-11-30T07:23:03.112Z,982.74
2022-11-30T07:24:03.014Z,982.74
2022-11-30T07:25:02.999Z,982.74
2022-11-30T07:26:03.870Z,982.82
2022-11-30T07:27:03.856Z,982.69
2022-11-30T07:28:03.783Z,982.63
2022-11-30T07:29:03.701Z,982.93
2022-11-30T07:30:03.757Z,982.82
2022-11-30T07:31:03.682Z,982.85
2022-11-30T07:32:03.800Z,982.69
2022-11-30T07:33:03.608Z,982.85
2022-11-30T07:34:03.680Z,982.85
2022-11-30T07:35:03.684Z,982.74
2022-11-30T07:36:03.662Z,982.88
2022-11-30T07:37:03.498Z,982.96
2022-11-30T07:38:10.096Z,982.93
2022-11-30T07:39:03.304Z,982.79
2022-11-30T07:40:03.322Z,982.85
2022-11-30T07:41:03.189Z,982.87
2022-11-30T07:42:03.171Z,982.90
2022-11-30T07:43:03.207Z,982.63
2022-11-30T07:44:03.004Z,982.74
2022-11-30T07:45:02.973Z,982.82
2022-11-30T07:46:03.200Z,982.74
2022-11-30T07:47:02.960Z,982.79
2022-11-30T07:48:03.904Z,982.74
2022-11-30T07:49:03.794Z,982.87
2022-11-30T07:50:03.684Z,982.74
2022-11-30T07:51:03.531Z,982.87
2022-11-30T07:52:03.442Z,982.87
2022-11-30T07:53:03.456Z,982.82
2022-11-30T07:54:03.328Z,982.82
2022-11-30T07:55:03.257Z,982.82
2022-11-30T07:56:03.178Z,982.82
2022-11-30T07:57:03.043Z,982.74
2022-11-30T07:58:03.138Z,982.87
2022-11-30T07:59:03.046Z,982.82
2022-11-30T08:00:02.959Z,982.71
2022-11-30T08:01:04.140Z,982.87
2022-11-30T08:02:03.980Z,982.81
2022-11-30T08:03:03.952Z,982.79
2022-11-30T08:04:03.813Z,982.79
2022-11-30T08:05:03.667Z,982.87
2022-11-30T08:06:03.537Z,982.93
2022-11-30T08:07:03.492Z,982.71
2022-11-30T08:08:03.654Z,982.93
2022-11-30T08:09:03.462Z,982.90
2022-11-30T08:10:03.434Z,982.84
2022-11-30T08:11:03.278Z,982.90
2022-11-30T08:12:03.240Z,982.87
2022-11-30T08:13:03.344Z,982.90
2022-11-30T08:14:03.205Z,982.90
2022-11-30T08:15:21.748Z,982.90
2022-11-30T08:16:03.029Z,982.90
2022-11-30T08:17:03.038Z,982.98
2022-11-30T08:18:03.914Z,982.81
2022-11-30T08:19:03.805Z,982.90
2022-11-30T08:20:03.833Z,982.90
2022-11-30T08:21:03.892Z,983.01
2022-11-30T08:22:03.683Z,982.84
2022-11-30T08:23:03.544Z,982.87
2022-11-30T08:24:03.845Z,982.98
2022-11-30T08:25:03.553Z,983.03
2022-11-30T08:26:03.327Z,982.92
2022-11-30T08:27:03.245Z,983.01
2022-11-30T08:28:03.313Z,982.95
2022-11-30T08:29:03.116Z,982.95
2022-11-30T08:30:03.058Z,982.95
2022-11-30T08:31:03.072Z,982.95
2022-11-30T08:32:02.859Z,982.92
2022-11-30T08:33:03.847Z,982.89
2022-11-30T08:34:03.701Z,982.98
2022-11-30T08:35:03.742Z,982.86
2022-11-30T08:36:03.607Z,982.89
2022-11-30T08:37:03.630Z,982.92
2022-11-30T08:38:03.503Z,982.97
2022-11-30T08:39:03.371Z,982.95
2022-11-30T08:40:03.288Z,982.97
2022-11-30T08:41:03.246Z,983.11
2022-11-30T08:42:03.190Z,982.92
2022-11-30T08:43:03.114Z,982.92
2022-11-30T08:44:02.982Z,983.03
2022-11-30T08:45:03.553Z,983.06
2022-11-30T08:46:16.136Z,983.17
2022-11-30T08:47:03.943Z,983.00
2022-11-30T08:48:03.809Z,983.03
2022-11-30T08:49:22.409Z,983.03
2022-11-30T08:50:03.603Z,982.94
2022-11-30T08:51:03.496Z,983.03
2022-11-30T08:52:19.201Z,983.11
2022-11-30T08:53:06.837Z,983.11
2022-11-30T08:54:03.246Z,983.20
2022-11-30T08:55:03.188Z,983.17
2022-11-30T08:56:02.971Z,983.19
2022-11-30T08:57:02.954Z,983.11
2022-11-30T08:58:03.832Z,983.19
2022-11-30T08:59:03.761Z,983.14
2022-11-30T09:00:03.795Z,983.22
2022-11-30T09:01:03.962Z,983.22
2022-11-30T09:02:03.725Z,983.14
2022-11-30T09:03:03.778Z,983.05
2022-11-30T09:04:03.671Z,983.16
2022-11-30T09:05:03.497Z,983.25
2022-11-30T09:06:03.383Z,983.19
2022-11-30T09:07:03.334Z,983.25
2022-11-30T09:08:03.616Z,983.28
2022-11-30T09:09:03.301Z,983.38
2022-11-30T09:10:03.163Z,983.22
2022-11-30T09:11:02.992Z,983.30
2022-11-30T09:12:02.954Z,983.33
2022-11-30T09:13:03.792Z,983.35
2022-11-30T09:14:03.949Z,983.40
2022-11-30T09:15:03.695Z,983.43
2022-11-30T09:16:03.902Z,983.33
2022-11-30T09:17:03.877Z,983.33
2022-11-30T09:18:03.806Z,983.49
2022-11-30T09:19:04.170Z,983.33
2022-11-30T09:20:03.852Z,983.49
2022-11-30T09:21:03.722Z,983.49
2022-11-30T09:22:03.635Z,983.46
2022-11-30T09:23:03.666Z,983.43
2022-11-30T09:24:03.574Z,983.46
2022-11-30T09:25:03.452Z,983.40
2022-11-30T09:26:03.379Z,983.43
2022-11-30T09:27:03.362Z,983.48
2022-11-30T09:28:12.231Z,983.35
2022-11-30T09:29:03.252Z,983.62
2022-11-30T09:30:03.018Z,983.48
2022-11-30T09:31:03.310Z,983.46
2022-11-30T09:32:03.025Z,983.48
2022-11-30T09:33:02.875Z,983.57
2022-11-30T09:34:03.825Z,983.51
2022-11-30T09:35:03.901Z,983.54
2022-11-30T09:36:03.809Z,983.48
2022-11-30T09:37:03.748Z,983.45
2022-11-30T09:38:03.695Z,983.57
2022-11-30T09:39:03.818Z,983.51
2022-11-30T09:40:03.756Z,983.43
2022-11-30T09:41:03.612Z,983.60
2022-11-30T09:42:03.539Z,983.62
2022-11-30T09:43:03.418Z,983.62
2022-11-30T09:44:03.443Z,983.62
2022-11-30T09:45:03.237Z,983.54
2022-11-30T09:46:03.263Z,983.48
2022-11-30T09:47:03.117Z,983.65
2022-11-30T09:48:02.987Z,983.62
2022-11-30T09:49:03.962Z,983.62
2022-11-30T09:50:03.739Z,983.59
2022-11-30T09:51:03.669Z,983.60
2022-11-30T09:52:03.637Z,983.54
2022-11-30T09:53:03.624Z,983.62
2022-11-30T09:54:03.474Z,983.62
2022-11-30T09:55:03.406Z,983.48
2022-11-30T09:56:03.308Z,983.45
2022-11-30T09:57:03.213Z,983.54
2022-11-30T09:58:03.169Z,983.45
2022-11-30T09:59:03.270Z,983.65
2022-11-30T10:00:03.137Z,983.56
2022-11-30T10:01:07.712Z,983.65
2022-11-30T10:02:03.936Z,983.62
2022-11-30T10:03:03.974Z,983.51
2022-11-30T10:04:03.737Z,983.59
2022-11-30T10:05:03.690Z,983.59
2022-11-30T10:06:03.767Z,983.62
2022-11-30T10:07:03.604Z,983.62
2022-11-30T10:08:03.707Z,983.56
2022-11-30T10:09:03.613Z,983.62
2022-11-30T10:10:32.900Z,983.56
2022-11-30T10:11:03.477Z,983.56
2022-11-30T10:12:03.412Z,983.67
2022-11-30T10:13:03.404Z,983.59
2022-11-30T10:14:03.263Z,983.62
2022-11-30T10:15:03.338Z,983.62
2022-11-30T10:16:03.146Z,983.62
2022-11-30T10:17:03.045Z,983.70
2022-11-30T10:18:02.942Z,983.59
2022-11-30T10:19:02.995Z,983.64
2022-11-30T10:20:03.961Z,983.70
2022-11-30T10:21:03.059Z,983.64
2022-11-30T10:22:02.946Z,983.62
2022-11-30T10:23:02.951Z,983.70
2022-11-30T10:24:02.905Z,983.67
2022-11-30T10:25:12.138Z,983.73
2022-11-30T10:26:03.825Z,983.78
2022-11-30T10:27:03.694Z,983.76
2022-11-30T10:28:45.937Z,983.67
2022-11-30T10:29:03.755Z,983.67
2022-11-30T10:30:03.837Z,983.44
2022-11-30T10:31:03.784Z,983.53
2022-11-30T10:32:03.497Z,983.56
2022-11-30T10:33:03.477Z,983.73
2022-11-30T10:34:03.354Z,983.64
2022-11-30T10:35:03.290Z,983.75
2022-11-30T10:36:03.088Z,983.67
2022-11-30T10:37:03.143Z,983.61
2022-11-30T10:38:02.993Z,983.70
2022-11-30T10:39:03.005Z,983.61
2022-11-30T10:40:02.930Z,983.64
2022-11-30T10:41:03.837Z,983.70
2022-11-30T10:42:03.673Z,983.72
2022-11-30T10:43:03.731Z,983.64
2022-11-30T10:44:03.673Z,983.61
2022-11-30T10:45:03.677Z,983.67
2022-11-30T10:46:03.527Z,983.61
2022-11-30T10:47:03.648Z,983.55
2022-11-30T10:48:03.560Z,983.69
2022-11-30T10:49:03.430Z,983.64
2022-11-30T10:50:03.562Z,983.52
2022-11-30T10:51:03.393Z,983.61
2022-11-30T10:52:03.220Z,983.61
2022-11-30T10:53:03.168Z,983.61
2022-11-30T10:54:03.064Z,983.52
2022-11-30T10:55:05.623Z,983.52
2022-11-30T10:56:02.906Z,983.55
2022-11-30T10:57:03.766Z,983.55
2022-11-30T10:58:03.722Z,983.44
2022-11-30T10:59:03.625Z,983.69
2022-11-30T11:00:03.555Z,983.52
2022-11-30T11:01:03.710Z,983.52
2022-11-30T11:02:03.499Z,983.58
2022-11-30T11:03:03.479Z,983.63
2022-11-30T11:04:03.411Z,983.66
2022-11-30T11:05:03.216Z,983.57
2022-11-30T11:06:03.136Z,983.57
2022-11-30T11:07:03.338Z,983.71
2022-11-30T11:08:07.664Z,983.69
2022-11-30T11:09:02.973Z,983.69
2022-11-30T11:10:03.104Z,983.52
2022-11-30T11:11:03.059Z,983.60
2022-11-30T11:12:02.906Z,983.66
2022-11-30T11:13:03.813Z,983.71
2022-11-30T11:14:03.693Z,983.74
2022-11-30T11:15:03.640Z,983.74
2022-11-30T11:16:03.782Z,983.57
2022-11-30T11:17:03.524Z,983.71
2022-11-30T11:18:03.528Z,983.63
2022-11-30T11:19:03.532Z,983.71
2022-11-30T11:20:03.415Z,983.63
2022-11-30T11:21:07.221Z,983.74
2022-11-30T11:22:03.252Z,983.80
2022-11-30T11:23:03.270Z,983.80
2022-11-30T11:24:03.287Z,983.57
2022-11-30T11:25:03.216Z,983.57
2022-11-30T11:26:03.146Z,983.77
2022-11-30T11:27:03.030Z,983.79
2022-11-30T11:28:02.904Z,983.62
2022-11-30T11:29:03.835Z,983.65
2022-11-30T11:30:03.774Z,983.68
2022-11-30T11:31:03.851Z,983.62
2022-11-30T11:32:03.599Z,983.59
2022-11-30T11:33:03.488Z,983.65
2022-11-30T11:34:03.331Z,983.56
2022-11-30T11:35:03.275Z,983.59
2022-11-30T11:36:03.314Z,983.51
2022-11-30T11:37:03.156Z,983.65
2022-11-30T11:38:03.138Z,983.70
2022-11-30T11:39:03.070Z,983.51
2022-11-30T11:40:03.132Z,983.70
2022-11-30T11:41:03.011Z,983.76
2022-11-30T11:42:02.951Z,983.73
2022-11-30T11:43:02.907Z,983.70
2022-11-30T11:44:03.793Z,983.59
2022-11-30T11:45:03.685Z,983.62
2022-11-30T11:46:03.710Z,983.70
2022-11-30T11:47:03.516Z,983.65
2022-11-30T11:48:03.393Z,983.73
2022-11-30T11:49:03.309Z,983.65
2022-11-30T11:50:03.270Z,983.73
2022-11-30T11:51:08.512Z,983.76
2022-11-30T11:52:03.104Z,983.82
2022-11-30T11:53:02.958Z,983.76
2022-11-30T11:54:02.973Z,983.79
2022-11-30T11:55:02.929Z,983.79
2022-11-30T11:56:02.962Z,983.84
2022-11-30T11:57:03.862Z,983.70
2022-11-30T11:58:03.712Z,983.73
2022-11-30T11:59:03.747Z,983.76
2022-11-30T12:00:03.634Z,983.78
2022-11-30T12:01:40.084Z,983.78
2022-11-30T12:02:03.640Z,983.73
2022-11-30T12:03:03.635Z,983.73
2022-11-30T12:04:03.609Z,983.70
2022-11-30T12:05:03.435Z,983.58
2022-11-30T12:06:03.487Z,983.67
2022-11-30T12:07:03.292Z,983.67
2022-11-30T12:08:03.195Z,983.69
2022-11-30T12:09:03.071Z,983.83
2022-11-30T12:10:03.038Z,983.64
2022-11-30T12:11:02.882Z,983.69
2022-11-30T12:12:02.911Z,983.81
2022-11-30T12:13:02.997Z,983.72
2022-11-30T12:14:03.854Z,983.69
2022-11-30T12:15:03.750Z,983.69
2022-11-30T12:16:03.780Z,983.75
2022-11-30T12:17:03.695Z,983.66
2022-11-30T12:18:03.855Z,983.63
2022-11-30T12:19:03.543Z,983.83
2022-11-30T12:20:03.355Z,983.80
2022-11-30T12:21:03.344Z,983.75
2022-11-30T12:22:03.244Z,983.77
2022-11-30T12:23:03.136Z,983.60
2022-11-30T12:24:03.391Z,983.77
2022-11-30T12:25:06.625Z,983.86
2022-11-30T12:26:03.003Z,983.71
2022-11-30T12:27:02.966Z,983.69
2022-11-30T12:28:02.922Z,983.94